sensor_id;sensor_type;location;lat;lon;timestamp;temperature;humidity
23087;DHT22;11712;51.134;4.156;2023-02-15T00:01:36;5.00;99.90
23087;DHT22;11712;51.134;4.156;2023-02-15T00:04:03;5.10;99.90
23087;DHT22;11712;51.134;4.156;2023-02-15T00:06:29;5.00;99.90
23087;DHT22;11712;51.134;4.156;2023-02-15T00:08:55;5.00;99.90
23087;DHT22;11712;51.134;4.156;2023-02-15T00:11:21;4.90;99.90
23087;DHT22;11712;51.134;4.156;2023-02-15T00:16:35;4.90;99.90
23087;DHT22;11712;51.134;4.156;2023-02-15T00:19:01;5.00;99.90
23087;DHT22;11712;51.134;4.156;2023-02-15T00:21:28;4.90;99.90
23087;DHT22;11712;51.134;4.156;2023-02-15T00:23:56;4.80;99.90
23087;DHT22;11712;51.134;4.156;2023-02-15T00:26:22;4.60;99.90
23087;DHT22;11712;51.134;4.156;2023-02-15T00:28:48;4.60;99.90
23087;DHT22;11712;51.134;4.156;2023-02-15T00:31:13;4.60;99.90
23087;DHT22;11712;51.134;4.156;2023-02-15T00:33:39;4.50;99.90
23087;DHT22;11712;51.134;4.156;2023-02-15T00:36:06;4.50;99.90
23087;DHT22;11712;51.134;4.156;2023-02-15T00:38:33;4.60;99.90
23087;DHT22;11712;51.134;4.156;2023-02-15T00:41:01;4.60;99.90
23087;DHT22;11712;51.134;4.156;2023-02-15T00:43:28;4.60;99.90
23087;DHT22;11712;51.134;4.156;2023-02-15T00:45:54;4.70;99.90
23087;DHT22;11712;51.134;4.156;2023-02-15T00:48:20;4.70;99.90
23087;DHT22;11712;51.134;4.156;2023-02-15T00:50:48;4.70;99.90
23087;DHT22;11712;51.134;4.156;2023-02-15T00:53:14;4.70;99.90
23087;DHT22;11712;51.134;4.156;2023-02-15T00:55:40;4.70;99.90
23087;DHT22;11712;51.134;4.156;2023-02-15T00:58:07;4.60;99.90
23087;DHT22;11712;51.134;4.156;2023-02-15T01:00:33;4.60;99.90
23087;DHT22;11712;51.134;4.156;2023-02-15T01:02:58;4.60;99.90
23087;DHT22;11712;51.134;4.156;2023-02-15T01:05:24;4.50;99.90
23087;DHT22;11712;51.134;4.156;2023-02-15T01:07:50;4.40;99.90
23087;DHT22;11712;51.134;4.156;2023-02-15T01:10:15;4.10;99.90
23087;DHT22;11712;51.134;4.156;2023-02-15T01:12:41;4.10;99.90
23087;DHT22;11712;51.134;4.156;2023-02-15T01:15:07;4.20;99.90
23087;DHT22;11712;51.134;4.156;2023-02-15T01:17:33;4.20;99.90
23087;DHT22;11712;51.134;4.156;2023-02-15T01:19:59;4.10;99.90
23087;DHT22;11712;51.134;4.156;2023-02-15T01:22:25;4.20;99.90
23087;DHT22;11712;51.134;4.156;2023-02-15T01:24:51;4.10;99.90
23087;DHT22;11712;51.134;4.156;2023-02-15T01:27:17;4.10;99.90
23087;DHT22;11712;51.134;4.156;2023-02-15T01:29:43;4.20;99.90
23087;DHT22;11712;51.134;4.156;2023-02-15T01:32:09;4.30;99.90
23087;DHT22;11712;51.134;4.156;2023-02-15T01:34:34;4.20;99.90
23087;DHT22;11712;51.134;4.156;2023-02-15T01:37:00;4.20;99.90
23087;DHT22;11712;51.134;4.156;2023-02-15T01:39:26;4.10;99.90
23087;DHT22;11712;51.134;4.156;2023-02-15T01:41:51;4.00;99.90
23087;DHT22;11712;51.134;4.156;2023-02-15T01:47:18;3.70;99.90
23087;DHT22;11712;51.134;4.156;2023-02-15T01:49:46;3.60;99.90
23087;DHT22;11712;51.134;4.156;2023-02-15T01:52:15;3.70;99.90
23087;DHT22;11712;51.134;4.156;2023-02-15T01:54:43;3.90;99.90
23087;DHT22;11712;51.134;4.156;2023-02-15T01:57:16;4.00;99.90
23087;DHT22;11712;51.134;4.156;2023-02-15T01:59:46;4.00;99.90
23087;DHT22;11712;51.134;4.156;2023-02-15T02:02:14;3.90;99.90
23087;DHT22;11712;51.134;4.156;2023-02-15T02:04:50;3.80;99.90
23087;DHT22;11712;51.134;4.156;2023-02-15T02:07:20;3.70;99.90
23087;DHT22;11712;51.134;4.156;2023-02-15T02:09:46;3.70;99.90
23087;DHT22;11712;51.134;4.156;2023-02-15T02:12:13;3.80;99.90
23087;DHT22;11712;51.134;4.156;2023-02-15T02:14:40;3.90;99.90
23087;DHT22;11712;51.134;4.156;2023-02-15T02:28:47;4.20;99.90
23087;DHT22;11712;51.134;4.156;2023-02-15T02:37:03;4.20;99.90
23087;DHT22;11712;51.134;4.156;2023-02-15T02:39:51;4.30;99.90
23087;DHT22;11712;51.134;4.156;2023-02-15T02:45:03;4.30;99.90
23087;DHT22;11712;51.134;4.156;2023-02-15T02:47:47;4.30;99.90
23087;DHT22;11712;51.134;4.156;2023-02-15T02:50:16;4.20;99.90
23087;DHT22;11712;51.134;4.156;2023-02-15T02:52:47;4.30;99.90
23087;DHT22;11712;51.134;4.156;2023-02-15T02:57:53;4.20;99.90
23087;DHT22;11712;51.134;4.156;2023-02-15T03:00:21;4.10;99.90
23087;DHT22;11712;51.134;4.156;2023-02-15T03:02:53;4.00;99.90
23087;DHT22;11712;51.134;4.156;2023-02-15T03:05:25;4.00;99.90
23087;DHT22;11712;51.134;4.156;2023-02-15T03:07:52;4.00;99.90
23087;DHT22;11712;51.134;4.156;2023-02-15T03:10:21;4.00;99.90
23087;DHT22;11712;51.134;4.156;2023-02-15T03:12:48;3.80;99.90
23087;DHT22;11712;51.134;4.156;2023-02-15T03:15:23;3.90;99.90
23087;DHT22;11712;51.134;4.156;2023-02-15T03:17:56;4.00;99.90
23087;DHT22;11712;51.134;4.156;2023-02-15T03:20:29;4.00;99.90
23087;DHT22;11712;51.134;4.156;2023-02-15T03:23:05;4.00;99.90
23087;DHT22;11712;51.134;4.156;2023-02-15T03:25:39;4.00;99.90
23087;DHT22;11712;51.134;4.156;2023-02-15T03:28:12;4.00;99.90
23087;DHT22;11712;51.134;4.156;2023-02-15T03:30:39;4.00;99.90
23087;DHT22;11712;51.134;4.156;2023-02-15T03:33:09;4.10;99.90
23087;DHT22;11712;51.134;4.156;2023-02-15T03:36:01;4.00;99.90
23087;DHT22;11712;51.134;4.156;2023-02-15T03:38:36;3.90;99.90
23087;DHT22;11712;51.134;4.156;2023-02-15T03:41:03;3.90;99.90
23087;DHT22;11712;51.134;4.156;2023-02-15T03:43:51;3.80;99.90
23087;DHT22;11712;51.134;4.156;2023-02-15T03:49:42;3.80;99.90
23087;DHT22;11712;51.134;4.156;2023-02-15T03:51:36;3.90;99.90
23087;DHT22;11712;51.134;4.156;2023-02-15T04:00:03;3.90;99.90
23087;DHT22;11712;51.134;4.156;2023-02-15T04:05:38;3.90;99.90
23087;DHT22;11712;51.134;4.156;2023-02-15T04:08:04;3.80;99.90
23087;DHT22;11712;51.134;4.156;2023-02-15T04:10:30;3.70;99.90
23087;DHT22;11712;51.134;4.156;2023-02-15T04:13:14;3.60;99.90
23087;DHT22;11712;51.134;4.156;2023-02-15T04:15:39;3.70;99.90
23087;DHT22;11712;51.134;4.156;2023-02-15T04:18:24;3.70;99.90
23087;DHT22;11712;51.134;4.156;2023-02-15T04:21:08;3.60;99.90
23087;DHT22;11712;51.134;4.156;2023-02-15T04:23:52;3.50;99.90
23087;DHT22;11712;51.134;4.156;2023-02-15T04:26:36;3.40;99.90
23087;DHT22;11712;51.134;4.156;2023-02-15T04:29:02;3.30;99.90
23087;DHT22;11712;51.134;4.156;2023-02-15T04:31:27;3.30;99.90
23087;DHT22;11712;51.134;4.156;2023-02-15T04:33:53;3.30;99.90
23087;DHT22;11712;51.134;4.156;2023-02-15T04:36:19;3.40;99.90
23087;DHT22;11712;51.134;4.156;2023-02-15T04:38:44;3.30;99.90
23087;DHT22;11712;51.134;4.156;2023-02-15T04:41:10;3.10;99.90
23087;DHT22;11712;51.134;4.156;2023-02-15T04:43:37;3.10;99.90
23087;DHT22;11712;51.134;4.156;2023-02-15T04:46:03;3.10;99.90
23087;DHT22;11712;51.134;4.156;2023-02-15T04:48:29;3.10;99.90
23087;DHT22;11712;51.134;4.156;2023-02-15T04:50:54;3.10;99.90
23087;DHT22;11712;51.134;4.156;2023-02-15T04:53:20;3.10;99.90
23087;DHT22;11712;51.134;4.156;2023-02-15T04:55:46;3.20;99.90
23087;DHT22;11712;51.134;4.156;2023-02-15T04:58:11;3.20;99.90
23087;DHT22;11712;51.134;4.156;2023-02-15T05:00:37;3.00;99.90
23087;DHT22;11712;51.134;4.156;2023-02-15T05:03:03;2.90;99.90
23087;DHT22;11712;51.134;4.156;2023-02-15T05:05:28;3.00;99.90
23087;DHT22;11712;51.134;4.156;2023-02-15T05:07:54;3.00;99.90
23087;DHT22;11712;51.134;4.156;2023-02-15T05:10:20;3.00;99.90
23087;DHT22;11712;51.134;4.156;2023-02-15T05:12:46;3.00;99.90
23087;DHT22;11712;51.134;4.156;2023-02-15T05:15:12;3.10;99.90
23087;DHT22;11712;51.134;4.156;2023-02-15T05:17:38;3.20;99.90
23087;DHT22;11712;51.134;4.156;2023-02-15T05:20:04;3.30;99.90
23087;DHT22;11712;51.134;4.156;2023-02-15T05:22:31;3.30;99.90
23087;DHT22;11712;51.134;4.156;2023-02-15T05:24:57;3.30;99.90
23087;DHT22;11712;51.134;4.156;2023-02-15T05:27:41;3.40;99.90
23087;DHT22;11712;51.134;4.156;2023-02-15T05:30:25;3.40;99.90
23087;DHT22;11712;51.134;4.156;2023-02-15T05:32:51;3.40;99.90
23087;DHT22;11712;51.134;4.156;2023-02-15T05:35:17;3.40;99.90
23087;DHT22;11712;51.134;4.156;2023-02-15T05:37:43;3.20;99.90
23087;DHT22;11712;51.134;4.156;2023-02-15T05:40:09;3.30;99.90
23087;DHT22;11712;51.134;4.156;2023-02-15T05:42:35;3.20;99.90
23087;DHT22;11712;51.134;4.156;2023-02-15T05:45:00;3.10;99.90
23087;DHT22;11712;51.134;4.156;2023-02-15T05:47:26;3.10;99.90
23087;DHT22;11712;51.134;4.156;2023-02-15T05:49:52;2.80;99.90
23087;DHT22;11712;51.134;4.156;2023-02-15T05:52:18;2.60;99.90
23087;DHT22;11712;51.134;4.156;2023-02-15T05:54:43;2.60;99.90
23087;DHT22;11712;51.134;4.156;2023-02-15T05:57:09;2.70;99.90
23087;DHT22;11712;51.134;4.156;2023-02-15T05:59:34;2.80;99.90
23087;DHT22;11712;51.134;4.156;2023-02-15T06:02:00;2.80;99.90
23087;DHT22;11712;51.134;4.156;2023-02-15T06:04:26;2.90;99.90
23087;DHT22;11712;51.134;4.156;2023-02-15T06:06:51;3.00;99.90
23087;DHT22;11712;51.134;4.156;2023-02-15T06:09:17;3.00;99.90
23087;DHT22;11712;51.134;4.156;2023-02-15T06:11:44;3.00;99.90
23087;DHT22;11712;51.134;4.156;2023-02-15T06:14:11;3.00;99.90
23087;DHT22;11712;51.134;4.156;2023-02-15T06:16:36;3.00;99.90
23087;DHT22;11712;51.134;4.156;2023-02-15T06:19:03;3.00;99.90
23087;DHT22;11712;51.134;4.156;2023-02-15T06:21:30;3.10;99.90
23087;DHT22;11712;51.134;4.156;2023-02-15T06:23:55;3.10;99.90
23087;DHT22;11712;51.134;4.156;2023-02-15T06:26:21;3.10;99.90
23087;DHT22;11712;51.134;4.156;2023-02-15T06:28:47;3.00;99.90
23087;DHT22;11712;51.134;4.156;2023-02-15T06:31:12;3.10;99.90
23087;DHT22;11712;51.134;4.156;2023-02-15T06:33:38;3.10;99.90
23087;DHT22;11712;51.134;4.156;2023-02-15T06:36:04;3.10;99.90
23087;DHT22;11712;51.134;4.156;2023-02-15T06:38:30;3.10;99.90
23087;DHT22;11712;51.134;4.156;2023-02-15T06:40:56;3.10;99.90
23087;DHT22;11712;51.134;4.156;2023-02-15T06:43:22;3.10;99.90
23087;DHT22;11712;51.134;4.156;2023-02-15T06:45:48;3.10;99.90
23087;DHT22;11712;51.134;4.156;2023-02-15T06:48:13;3.10;99.90
23087;DHT22;11712;51.134;4.156;2023-02-15T06:50:39;3.10;99.90
23087;DHT22;11712;51.134;4.156;2023-02-15T06:53:05;3.10;99.90
23087;DHT22;11712;51.134;4.156;2023-02-15T06:55:31;3.10;99.90
23087;DHT22;11712;51.134;4.156;2023-02-15T06:57:56;3.10;99.90
23087;DHT22;11712;51.134;4.156;2023-02-15T07:00:22;3.20;99.90
23087;DHT22;11712;51.134;4.156;2023-02-15T07:02:53;3.20;99.90
23087;DHT22;11712;51.134;4.156;2023-02-15T07:05:24;3.20;99.90
23087;DHT22;11712;51.134;4.156;2023-02-15T07:07:50;3.30;99.90
23087;DHT22;11712;51.134;4.156;2023-02-15T07:10:16;3.40;99.90
23087;DHT22;11712;51.134;4.156;2023-02-15T07:12:42;3.30;99.90
23087;DHT22;11712;51.134;4.156;2023-02-15T07:15:16;3.30;99.90
23087;DHT22;11712;51.134;4.156;2023-02-15T07:17:42;3.40;99.90
23087;DHT22;11712;51.134;4.156;2023-02-15T07:20:17;3.50;99.90
23087;DHT22;11712;51.134;4.156;2023-02-15T07:22:43;3.50;99.90
23087;DHT22;11712;51.134;4.156;2023-02-15T07:25:10;3.50;99.90
23087;DHT22;11712;51.134;4.156;2023-02-15T07:27:36;3.50;99.90
23087;DHT22;11712;51.134;4.156;2023-02-15T07:30:04;3.60;99.90
23087;DHT22;11712;51.134;4.156;2023-02-15T07:32:31;3.60;99.90
23087;DHT22;11712;51.134;4.156;2023-02-15T07:34:57;3.70;99.90
23087;DHT22;11712;51.134;4.156;2023-02-15T07:37:23;3.80;99.90
23087;DHT22;11712;51.134;4.156;2023-02-15T07:39:49;3.70;99.90
23087;DHT22;11712;51.134;4.156;2023-02-15T07:42:15;3.70;99.90
23087;DHT22;11712;51.134;4.156;2023-02-15T07:44:41;3.70;99.90
23087;DHT22;11712;51.134;4.156;2023-02-15T07:47:06;3.70;99.90
23087;DHT22;11712;51.134;4.156;2023-02-15T07:49:32;3.80;99.90
23087;DHT22;11712;51.134;4.156;2023-02-15T07:52:00;3.80;99.90
23087;DHT22;11712;51.134;4.156;2023-02-15T07:54:27;3.90;99.90
23087;DHT22;11712;51.134;4.156;2023-02-15T07:56:53;4.00;99.90
23087;DHT22;11712;51.134;4.156;2023-02-15T07:59:18;4.10;99.90
23087;DHT22;11712;51.134;4.156;2023-02-15T08:01:44;4.10;99.90
23087;DHT22;11712;51.134;4.156;2023-02-15T08:04:09;4.30;99.90
23087;DHT22;11712;51.134;4.156;2023-02-15T08:06:37;4.40;99.90
23087;DHT22;11712;51.134;4.156;2023-02-15T08:09:05;4.40;99.90
23087;DHT22;11712;51.134;4.156;2023-02-15T08:11:33;4.40;99.90
23087;DHT22;11712;51.134;4.156;2023-02-15T08:14:18;4.50;99.90
23087;DHT22;11712;51.134;4.156;2023-02-15T08:16:45;4.50;99.90
23087;DHT22;11712;51.134;4.156;2023-02-15T08:19:15;4.50;99.90
23087;DHT22;11712;51.134;4.156;2023-02-15T08:21:43;4.40;99.90
23087;DHT22;11712;51.134;4.156;2023-02-15T08:24:10;4.30;99.90
23087;DHT22;11712;51.134;4.156;2023-02-15T08:26:37;4.20;99.90
23087;DHT22;11712;51.134;4.156;2023-02-15T08:29:04;4.40;99.90
23087;DHT22;11712;51.134;4.156;2023-02-15T08:31:32;4.50;99.90
23087;DHT22;11712;51.134;4.156;2023-02-15T08:33:58;4.70;99.90
23087;DHT22;11712;51.134;4.156;2023-02-15T08:36:27;4.80;99.90
23087;DHT22;11712;51.134;4.156;2023-02-15T08:38:53;4.90;99.90
23087;DHT22;11712;51.134;4.156;2023-02-15T08:41:24;5.10;99.90
23087;DHT22;11712;51.134;4.156;2023-02-15T08:43:53;5.30;99.90
23087;DHT22;11712;51.134;4.156;2023-02-15T08:46:19;5.40;99.90
23087;DHT22;11712;51.134;4.156;2023-02-15T08:48:45;5.60;99.90
23087;DHT22;11712;51.134;4.156;2023-02-15T08:51:14;5.60;99.90
23087;DHT22;11712;51.134;4.156;2023-02-15T08:53:45;5.80;99.90
23087;DHT22;11712;51.134;4.156;2023-02-15T08:56:11;5.80;99.90
23087;DHT22;11712;51.134;4.156;2023-02-15T08:58:37;5.80;99.90
23087;DHT22;11712;51.134;4.156;2023-02-15T09:01:15;5.90;99.90
23087;DHT22;11712;51.134;4.156;2023-02-15T09:03:46;6.00;99.90
23087;DHT22;11712;51.134;4.156;2023-02-15T09:06:12;6.20;99.90
23087;DHT22;11712;51.134;4.156;2023-02-15T09:08:39;6.30;99.90
23087;DHT22;11712;51.134;4.156;2023-02-15T09:11:17;6.20;99.90
23087;DHT22;11712;51.134;4.156;2023-02-15T09:13:52;6.30;99.90
23087;DHT22;11712;51.134;4.156;2023-02-15T09:16:18;6.30;99.90
23087;DHT22;11712;51.134;4.156;2023-02-15T09:18:45;6.30;99.90
23087;DHT22;11712;51.134;4.156;2023-02-15T09:21:13;6.30;99.90
23087;DHT22;11712;51.134;4.156;2023-02-15T09:23:40;6.40;99.90
23087;DHT22;11712;51.134;4.156;2023-02-15T09:26:11;6.50;99.90
23087;DHT22;11712;51.134;4.156;2023-02-15T09:28:37;6.50;99.90
23087;DHT22;11712;51.134;4.156;2023-02-15T09:31:20;6.50;99.90
23087;DHT22;11712;51.134;4.156;2023-02-15T09:33:47;6.60;99.90
23087;DHT22;11712;51.134;4.156;2023-02-15T09:36:19;6.70;99.90
23087;DHT22;11712;51.134;4.156;2023-02-15T09:38:48;6.70;99.90
23087;DHT22;11712;51.134;4.156;2023-02-15T09:49:09;6.80;99.90
23087;DHT22;11712;51.134;4.156;2023-02-15T10:00:41;7.10;99.90
23087;DHT22;11712;51.134;4.156;2023-02-15T10:08:51;7.50;99.90
23087;DHT22;11712;51.134;4.156;2023-02-15T10:30:49;8.40;99.90
23087;DHT22;11712;51.134;4.156;2023-02-15T10:33:31;8.50;99.90
23087;DHT22;11712;51.134;4.156;2023-02-15T10:56:24;9.50;99.90
23087;DHT22;11712;51.134;4.156;2023-02-15T10:58:48;9.70;99.90
23087;DHT22;11712;51.134;4.156;2023-02-15T11:01:29;9.80;99.90
23087;DHT22;11712;51.134;4.156;2023-02-15T11:06:44;9.90;99.90
23087;DHT22;11712;51.134;4.156;2023-02-15T11:09:14;10.10;99.90
23087;DHT22;11712;51.134;4.156;2023-02-15T11:11:50;10.30;99.90
23087;DHT22;11712;51.134;4.156;2023-02-15T11:14:38;10.30;99.90
23087;DHT22;11712;51.134;4.156;2023-02-15T11:17:16;10.40;99.90
23087;DHT22;11712;51.134;4.156;2023-02-15T11:22:19;10.30;99.90
23087;DHT22;11712;51.134;4.156;2023-02-15T11:24:46;10.30;99.90
23087;DHT22;11712;51.134;4.156;2023-02-15T11:37:40;10.40;99.90
23087;DHT22;11712;51.134;4.156;2023-02-15T11:42:45;10.50;99.90
23087;DHT22;11712;51.134;4.156;2023-02-15T11:45:26;10.60;99.90
23087;DHT22;11712;51.134;4.156;2023-02-15T11:47:53;10.60;99.90
23087;DHT22;11712;51.134;4.156;2023-02-15T11:50:30;10.70;99.90
23087;DHT22;11712;51.134;4.156;2023-02-15T11:53:02;10.80;99.90
23087;DHT22;11712;51.134;4.156;2023-02-15T11:55:30;11.10;99.90
23087;DHT22;11712;51.134;4.156;2023-02-15T12:01:28;11.50;99.90
23087;DHT22;11712;51.134;4.156;2023-02-15T12:04:24;11.70;99.90
23087;DHT22;11712;51.134;4.156;2023-02-15T12:06:58;11.70;99.90
23087;DHT22;11712;51.134;4.156;2023-02-15T12:11:53;11.60;99.90
23087;DHT22;11712;51.134;4.156;2023-02-15T12:14:18;11.60;99.90
23087;DHT22;11712;51.134;4.156;2023-02-15T12:18:39;11.60;99.90
23087;DHT22;11712;51.134;4.156;2023-02-15T12:21:14;11.80;99.90
23087;DHT22;11712;51.134;4.156;2023-02-15T12:23:46;12.00;99.90
23087;DHT22;11712;51.134;4.156;2023-02-15T12:26:14;12.20;99.90
23087;DHT22;11712;51.134;4.156;2023-02-15T12:28:49;12.10;99.90
23087;DHT22;11712;51.134;4.156;2023-02-15T12:31:37;11.70;99.90
23087;DHT22;11712;51.134;4.156;2023-02-15T12:34:18;11.60;99.90
23087;DHT22;11712;51.134;4.156;2023-02-15T12:36:49;11.50;99.90
23087;DHT22;11712;51.134;4.156;2023-02-15T12:39:19;11.50;99.90
23087;DHT22;11712;51.134;4.156;2023-02-15T12:44:25;11.60;99.90
23087;DHT22;11712;51.134;4.156;2023-02-15T12:47:19;11.80;99.90
23087;DHT22;11712;51.134;4.156;2023-02-15T12:50:08;11.90;99.90
23087;DHT22;11712;51.134;4.156;2023-02-15T12:52:46;12.00;99.90
23087;DHT22;11712;51.134;4.156;2023-02-15T12:57:46;12.00;99.90
23087;DHT22;11712;51.134;4.156;2023-02-15T13:00:26;12.00;99.90
23087;DHT22;11712;51.134;4.156;2023-02-15T13:02:55;12.00;99.90
23087;DHT22;11712;51.134;4.156;2023-02-15T13:05:32;12.00;99.90
23087;DHT22;11712;51.134;4.156;2023-02-15T13:08:15;11.90;99.90
23087;DHT22;11712;51.134;4.156;2023-02-15T13:11:11;11.90;99.90
23087;DHT22;11712;51.134;4.156;2023-02-15T13:14:00;12.00;99.90
23087;DHT22;11712;51.134;4.156;2023-02-15T13:16:36;12.00;99.90
23087;DHT22;11712;51.134;4.156;2023-02-15T13:19:18;12.00;99.90
23087;DHT22;11712;51.134;4.156;2023-02-15T13:21:47;12.00;99.90
23087;DHT22;11712;51.134;4.156;2023-02-15T13:24:20;12.00;99.90
23087;DHT22;11712;51.134;4.156;2023-02-15T13:26:47;12.00;99.90
23087;DHT22;11712;51.134;4.156;2023-02-15T13:29:28;12.10;99.90
23087;DHT22;11712;51.134;4.156;2023-02-15T13:31:56;12.00;99.90
23087;DHT22;11712;51.134;4.156;2023-02-15T13:34:29;12.00;99.90
23087;DHT22;11712;51.134;4.156;2023-02-15T13:37:19;12.00;99.90
23087;DHT22;11712;51.134;4.156;2023-02-15T13:42:19;12.20;99.90
23087;DHT22;11712;51.134;4.156;2023-02-15T13:47:57;12.30;99.90
23087;DHT22;11712;51.134;4.156;2023-02-15T13:53:11;12.30;99.90
23087;DHT22;11712;51.134;4.156;2023-02-15T14:15:18;12.20;99.90
23087;DHT22;11712;51.134;4.156;2023-02-15T14:18:07;12.20;99.90
23087;DHT22;11712;51.134;4.156;2023-02-15T14:21:03;12.30;99.90
23087;DHT22;11712;51.134;4.156;2023-02-15T14:23:55;12.30;99.90
23087;DHT22;11712;51.134;4.156;2023-02-15T14:31:39;12.50;99.90
23087;DHT22;11712;51.134;4.156;2023-02-15T14:36:50;12.60;99.90
23087;DHT22;11712;51.134;4.156;2023-02-15T14:42:37;12.70;99.90
23087;DHT22;11712;51.134;4.156;2023-02-15T14:45:15;12.70;99.90
23087;DHT22;11712;51.134;4.156;2023-02-15T14:47:55;12.70;99.90
23087;DHT22;11712;51.134;4.156;2023-02-15T14:50:38;12.60;99.90
23087;DHT22;11712;51.134;4.156;2023-02-15T14:53:25;12.50;99.90
23087;DHT22;11712;51.134;4.156;2023-02-15T14:56:21;12.40;99.90
23087;DHT22;11712;51.134;4.156;2023-02-15T15:03:54;12.40;99.90
23087;DHT22;11712;51.134;4.156;2023-02-15T15:06:41;12.30;99.90
23087;DHT22;11712;51.134;4.156;2023-02-15T15:09:19;12.30;99.90
23087;DHT22;11712;51.134;4.156;2023-02-15T15:11:49;12.30;99.90
23087;DHT22;11712;51.134;4.156;2023-02-15T15:17:01;12.30;99.90
23087;DHT22;11712;51.134;4.156;2023-02-15T15:22:28;12.20;99.90
23087;DHT22;11712;51.134;4.156;2023-02-15T15:24:55;12.20;99.90
23087;DHT22;11712;51.134;4.156;2023-02-15T15:27:52;12.20;99.90
23087;DHT22;11712;51.134;4.156;2023-02-15T15:49:16;11.50;99.90
23087;DHT22;11712;51.134;4.156;2023-02-15T15:51:44;11.40;99.90
23087;DHT22;11712;51.134;4.156;2023-02-15T15:54:24;11.30;99.90
23087;DHT22;11712;51.134;4.156;2023-02-15T15:56:59;11.20;99.90
23087;DHT22;11712;51.134;4.156;2023-02-15T15:59:29;11.10;99.90
23087;DHT22;11712;51.134;4.156;2023-02-15T16:01:55;11.10;99.90
23087;DHT22;11712;51.134;4.156;2023-02-15T16:04:30;11.20;99.90
23087;DHT22;11712;51.134;4.156;2023-02-15T16:06:56;11.00;99.90
23087;DHT22;11712;51.134;4.156;2023-02-15T16:09:27;10.90;99.90
23087;DHT22;11712;51.134;4.156;2023-02-15T16:11:59;10.90;99.90
23087;DHT22;11712;51.134;4.156;2023-02-15T16:14:32;11.00;99.90
23087;DHT22;11712;51.134;4.156;2023-02-15T16:17:01;10.90;99.90
23087;DHT22;11712;51.134;4.156;2023-02-15T16:19:31;11.00;99.90
23087;DHT22;11712;51.134;4.156;2023-02-15T16:21:59;11.10;99.90
23087;DHT22;11712;51.134;4.156;2023-02-15T16:24:48;11.00;99.90
23087;DHT22;11712;51.134;4.156;2023-02-15T16:27:47;11.00;99.90
23087;DHT22;11712;51.134;4.156;2023-02-15T16:30:33;10.90;99.90
23087;DHT22;11712;51.134;4.156;2023-02-15T16:33:13;10.90;99.90
23087;DHT22;11712;51.134;4.156;2023-02-15T16:35:55;10.80;99.90
23087;DHT22;11712;51.134;4.156;2023-02-15T16:41:16;10.80;99.90
23087;DHT22;11712;51.134;4.156;2023-02-15T16:43:45;10.80;99.90
23087;DHT22;11712;51.134;4.156;2023-02-15T16:46:26;10.70;99.90
23087;DHT22;11712;51.134;4.156;2023-02-15T16:48:55;10.70;99.90
23087;DHT22;11712;51.134;4.156;2023-02-15T16:51:25;10.80;99.90
23087;DHT22;11712;51.134;4.156;2023-02-15T16:53:52;10.70;99.90
23087;DHT22;11712;51.134;4.156;2023-02-15T16:56:28;10.60;99.90
23087;DHT22;11712;51.134;4.156;2023-02-15T16:58:57;10.30;99.90
23087;DHT22;11712;51.134;4.156;2023-02-15T17:01:26;10.00;99.90
23087;DHT22;11712;51.134;4.156;2023-02-15T17:04:29;9.80;99.90
23087;DHT22;11712;51.134;4.156;2023-02-15T17:07:14;9.60;99.90
23087;DHT22;11712;51.134;4.156;2023-02-15T17:09:51;9.50;99.90
23087;DHT22;11712;51.134;4.156;2023-02-15T17:15:02;9.20;99.90
23087;DHT22;11712;51.134;4.156;2023-02-15T17:17:31;9.00;99.90
23087;DHT22;11712;51.134;4.156;2023-02-15T17:19:57;8.90;99.90
23087;DHT22;11712;51.134;4.156;2023-02-15T17:22:25;8.90;99.90
23087;DHT22;11712;51.134;4.156;2023-02-15T17:25:02;8.80;99.90
23087;DHT22;11712;51.134;4.156;2023-02-15T17:27:30;8.80;99.90
23087;DHT22;11712;51.134;4.156;2023-02-15T17:30:01;8.70;99.90
23087;DHT22;11712;51.134;4.156;2023-02-15T17:32:31;8.70;99.90
23087;DHT22;11712;51.134;4.156;2023-02-15T17:37:31;8.80;99.90
23087;DHT22;11712;51.134;4.156;2023-02-15T17:40:26;8.90;99.90
23087;DHT22;11712;51.134;4.156;2023-02-15T17:42:52;9.00;99.90
23087;DHT22;11712;51.134;4.156;2023-02-15T17:45:18;8.90;99.90
23087;DHT22;11712;51.134;4.156;2023-02-15T17:47:46;8.90;99.90
23087;DHT22;11712;51.134;4.156;2023-02-15T17:50:23;9.00;99.90
23087;DHT22;11712;51.134;4.156;2023-02-15T17:52:50;9.00;99.90
23087;DHT22;11712;51.134;4.156;2023-02-15T17:55:19;9.10;99.90
23087;DHT22;11712;51.134;4.156;2023-02-15T17:58:02;9.10;99.90
23087;DHT22;11712;51.134;4.156;2023-02-15T18:00:30;9.20;99.90
23087;DHT22;11712;51.134;4.156;2023-02-15T18:03:15;9.20;99.90
23087;DHT22;11712;51.134;4.156;2023-02-15T18:06:00;9.10;99.90
23087;DHT22;11712;51.134;4.156;2023-02-15T18:08:45;8.90;99.90
23087;DHT22;11712;51.134;4.156;2023-02-15T18:11:29;8.90;99.90
23087;DHT22;11712;51.134;4.156;2023-02-15T18:14:08;8.80;99.90
23087;DHT22;11712;51.134;4.156;2023-02-15T18:16:39;8.70;99.90
23087;DHT22;11712;51.134;4.156;2023-02-15T18:19:16;8.70;99.90
23087;DHT22;11712;51.134;4.156;2023-02-15T18:21:43;8.70;99.90
23087;DHT22;11712;51.134;4.156;2023-02-15T18:24:21;8.60;99.90
23087;DHT22;11712;51.134;4.156;2023-02-15T18:26:49;8.50;99.90
23087;DHT22;11712;51.134;4.156;2023-02-15T18:29:15;8.30;99.90
23087;DHT22;11712;51.134;4.156;2023-02-15T18:31:43;8.40;99.90
23087;DHT22;11712;51.134;4.156;2023-02-15T18:34:36;8.30;99.90
23087;DHT22;11712;51.134;4.156;2023-02-15T18:37:04;8.10;99.90
23087;DHT22;11712;51.134;4.156;2023-02-15T18:39:39;8.10;99.90
23087;DHT22;11712;51.134;4.156;2023-02-15T18:42:20;8.00;99.90
23087;DHT22;11712;51.134;4.156;2023-02-15T18:44:48;7.90;99.90
23087;DHT22;11712;51.134;4.156;2023-02-15T18:47:14;7.80;99.90
23087;DHT22;11712;51.134;4.156;2023-02-15T18:49:39;7.80;99.90
23087;DHT22;11712;51.134;4.156;2023-02-15T18:52:05;8.00;99.90
23087;DHT22;11712;51.134;4.156;2023-02-15T18:54:34;8.10;99.90
23087;DHT22;11712;51.134;4.156;2023-02-15T18:57:00;8.00;99.90
23087;DHT22;11712;51.134;4.156;2023-02-15T18:59:27;8.00;99.90
23087;DHT22;11712;51.134;4.156;2023-02-15T19:01:56;8.10;99.90
23087;DHT22;11712;51.134;4.156;2023-02-15T19:04:22;8.10;99.90
23087;DHT22;11712;51.134;4.156;2023-02-15T19:06:48;8.20;99.90
23087;DHT22;11712;51.134;4.156;2023-02-15T19:09:21;8.10;99.90
23087;DHT22;11712;51.134;4.156;2023-02-15T19:11:53;8.00;99.90
23087;DHT22;11712;51.134;4.156;2023-02-15T19:14:32;7.90;99.90
23087;DHT22;11712;51.134;4.156;2023-02-15T19:16:59;7.90;99.90
23087;DHT22;11712;51.134;4.156;2023-02-15T19:19:26;7.90;99.90
23087;DHT22;11712;51.134;4.156;2023-02-15T19:21:52;8.00;99.90
23087;DHT22;11712;51.134;4.156;2023-02-15T19:24:22;8.00;99.90
23087;DHT22;11712;51.134;4.156;2023-02-15T19:26:49;8.00;99.90
23087;DHT22;11712;51.134;4.156;2023-02-15T19:29:19;7.90;99.90
23087;DHT22;11712;51.134;4.156;2023-02-15T19:31:46;7.80;99.90
23087;DHT22;11712;51.134;4.156;2023-02-15T19:34:17;7.80;99.90
23087;DHT22;11712;51.134;4.156;2023-02-15T19:36:47;7.70;99.90